sensor_id;sensor_type;location;lat;lon;timestamp;temperature;humidity
25024;DHT22;13033;50.936;5.334;2023-04-28T00:00:27;13.30;99.90
25024;DHT22;13033;50.936;5.334;2023-04-28T00:02:53;13.40;99.90
25024;DHT22;13033;50.936;5.334;2023-04-28T00:05:19;13.30;99.90
25024;DHT22;13033;50.936;5.334;2023-04-28T00:07:47;13.20;99.90
25024;DHT22;13033;50.936;5.334;2023-04-28T00:10:13;13.10;99.90
25024;DHT22;13033;50.936;5.334;2023-04-28T00:12:38;13.10;99.90
25024;DHT22;13033;50.936;5.334;2023-04-28T00:15:04;13.10;99.90
25024;DHT22;13033;50.936;5.334;2023-04-28T00:17:30;13.10;99.90
25024;DHT22;13033;50.936;5.334;2023-04-28T00:19:56;13.20;99.90
25024;DHT22;13033;50.936;5.334;2023-04-28T00:22:22;13.10;99.90
25024;DHT22;13033;50.936;5.334;2023-04-28T00:24:47;13.20;99.90
25024;DHT22;13033;50.936;5.334;2023-04-28T00:27:13;13.00;99.90
25024;DHT22;13033;50.936;5.334;2023-04-28T00:29:39;12.90;99.90
25024;DHT22;13033;50.936;5.334;2023-04-28T00:32:04;13.00;99.90
25024;DHT22;13033;50.936;5.334;2023-04-28T00:34:33;13.00;99.90
25024;DHT22;13033;50.936;5.334;2023-04-28T00:37:02;12.90;99.90
25024;DHT22;13033;50.936;5.334;2023-04-28T00:39:28;12.80;99.90
25024;DHT22;13033;50.936;5.334;2023-04-28T00:41:53;12.70;99.90
25024;DHT22;13033;50.936;5.334;2023-04-28T00:44:19;12.60;99.90
25024;DHT22;13033;50.936;5.334;2023-04-28T00:46:45;12.80;99.90
25024;DHT22;13033;50.936;5.334;2023-04-28T00:49:11;12.70;99.90
25024;DHT22;13033;50.936;5.334;2023-04-28T00:51:37;12.80;99.90
25024;DHT22;13033;50.936;5.334;2023-04-28T00:54:04;12.70;99.90
25024;DHT22;13033;50.936;5.334;2023-04-28T00:56:30;12.70;99.90
25024;DHT22;13033;50.936;5.334;2023-04-28T00:58:56;12.70;99.90
25024;DHT22;13033;50.936;5.334;2023-04-28T01:01:22;12.70;99.90
25024;DHT22;13033;50.936;5.334;2023-04-28T01:03:48;12.50;99.90
25024;DHT22;13033;50.936;5.334;2023-04-28T01:06:14;12.30;99.90
25024;DHT22;13033;50.936;5.334;2023-04-28T01:08:41;12.40;99.90
25024;DHT22;13033;50.936;5.334;2023-04-28T01:11:07;12.50;99.90
25024;DHT22;13033;50.936;5.334;2023-04-28T01:13:35;12.50;99.90
25024;DHT22;13033;50.936;5.334;2023-04-28T01:16:00;12.40;99.90
25024;DHT22;13033;50.936;5.334;2023-04-28T01:18:26;12.10;99.90
25024;DHT22;13033;50.936;5.334;2023-04-28T01:20:52;11.90;99.90
25024;DHT22;13033;50.936;5.334;2023-04-28T01:23:18;11.80;99.90
25024;DHT22;13033;50.936;5.334;2023-04-28T01:25:44;11.80;99.90
25024;DHT22;13033;50.936;5.334;2023-04-28T01:28:10;11.70;99.90
25024;DHT22;13033;50.936;5.334;2023-04-28T01:30:36;11.80;99.90
25024;DHT22;13033;50.936;5.334;2023-04-28T01:33:02;11.90;99.90
25024;DHT22;13033;50.936;5.334;2023-04-28T01:35:28;11.80;99.90
25024;DHT22;13033;50.936;5.334;2023-04-28T01:37:54;11.70;99.90
25024;DHT22;13033;50.936;5.334;2023-04-28T01:40:19;11.70;99.90
25024;DHT22;13033;50.936;5.334;2023-04-28T01:42:45;11.90;99.90
25024;DHT22;13033;50.936;5.334;2023-04-28T01:45:11;12.00;99.90
25024;DHT22;13033;50.936;5.334;2023-04-28T01:47:37;12.10;99.90
25024;DHT22;13033;50.936;5.334;2023-04-28T01:50:03;12.20;99.90
25024;DHT22;13033;50.936;5.334;2023-04-28T01:52:29;12.10;99.90
25024;DHT22;13033;50.936;5.334;2023-04-28T01:54:55;12.10;99.90
25024;DHT22;13033;50.936;5.334;2023-04-28T01:57:21;12.10;99.90
25024;DHT22;13033;50.936;5.334;2023-04-28T01:59:47;12.10;99.90
25024;DHT22;13033;50.936;5.334;2023-04-28T02:02:13;12.10;99.90
25024;DHT22;13033;50.936;5.334;2023-04-28T02:04:39;12.20;99.90
25024;DHT22;13033;50.936;5.334;2023-04-28T02:07:05;12.20;99.90
25024;DHT22;13033;50.936;5.334;2023-04-28T02:09:32;12.20;99.90
25024;DHT22;13033;50.936;5.334;2023-04-28T02:11:57;12.30;99.90
25024;DHT22;13033;50.936;5.334;2023-04-28T02:14:27;12.50;99.90
25024;DHT22;13033;50.936;5.334;2023-04-28T02:16:53;12.20;99.90
25024;DHT22;13033;50.936;5.334;2023-04-28T02:19:18;12.20;99.90
25024;DHT22;13033;50.936;5.334;2023-04-28T02:21:44;12.00;99.90
25024;DHT22;13033;50.936;5.334;2023-04-28T02:24:10;11.80;99.90
25024;DHT22;13033;50.936;5.334;2023-04-28T02:26:35;11.80;99.90
25024;DHT22;13033;50.936;5.334;2023-04-28T02:29:01;11.90;99.90
25024;DHT22;13033;50.936;5.334;2023-04-28T02:31:28;11.90;99.90
25024;DHT22;13033;50.936;5.334;2023-04-28T02:33:54;12.00;99.90
25024;DHT22;13033;50.936;5.334;2023-04-28T02:36:20;12.00;99.90
25024;DHT22;13033;50.936;5.334;2023-04-28T02:38:46;11.90;99.90
25024;DHT22;13033;50.936;5.334;2023-04-28T02:41:12;11.80;99.90
25024;DHT22;13033;50.936;5.334;2023-04-28T02:43:39;11.90;99.90
25024;DHT22;13033;50.936;5.334;2023-04-28T02:46:05;11.80;99.90
25024;DHT22;13033;50.936;5.334;2023-04-28T02:48:31;11.40;99.90
25024;DHT22;13033;50.936;5.334;2023-04-28T02:51:00;11.10;99.90
25024;DHT22;13033;50.936;5.334;2023-04-28T02:53:25;11.00;99.90
25024;DHT22;13033;50.936;5.334;2023-04-28T02:55:51;11.00;99.90
25024;DHT22;13033;50.936;5.334;2023-04-28T02:58:17;10.70;99.90
25024;DHT22;13033;50.936;5.334;2023-04-28T03:00:43;10.50;99.90
25024;DHT22;13033;50.936;5.334;2023-04-28T03:03:08;10.60;99.90
25024;DHT22;13033;50.936;5.334;2023-04-28T03:05:34;10.60;99.90
25024;DHT22;13033;50.936;5.334;2023-04-28T03:08:00;10.60;99.90
25024;DHT22;13033;50.936;5.334;2023-04-28T03:10:26;10.80;99.90
25024;DHT22;13033;50.936;5.334;2023-04-28T03:12:52;10.90;99.90
25024;DHT22;13033;50.936;5.334;2023-04-28T03:15:17;11.10;99.90
25024;DHT22;13033;50.936;5.334;2023-04-28T03:17:43;11.10;99.90
25024;DHT22;13033;50.936;5.334;2023-04-28T03:20:09;11.10;99.90
25024;DHT22;13033;50.936;5.334;2023-04-28T03:22:35;11.30;99.90
25024;DHT22;13033;50.936;5.334;2023-04-28T03:25:01;11.20;99.90
25024;DHT22;13033;50.936;5.334;2023-04-28T03:27:27;11.30;99.90
25024;DHT22;13033;50.936;5.334;2023-04-28T03:29:53;11.30;99.90
25024;DHT22;13033;50.936;5.334;2023-04-28T03:32:19;11.30;99.90
25024;DHT22;13033;50.936;5.334;2023-04-28T03:34:44;11.40;99.90
25024;DHT22;13033;50.936;5.334;2023-04-28T03:37:10;11.40;99.90
25024;DHT22;13033;50.936;5.334;2023-04-28T03:39:36;11.50;99.90
25024;DHT22;13033;50.936;5.334;2023-04-28T03:42:02;11.60;99.90
25024;DHT22;13033;50.936;5.334;2023-04-28T03:44:27;11.70;99.90
25024;DHT22;13033;50.936;5.334;2023-04-28T03:46:53;11.70;99.90
25024;DHT22;13033;50.936;5.334;2023-04-28T03:49:19;11.80;99.90
25024;DHT22;13033;50.936;5.334;2023-04-28T03:51:44;11.70;99.90
25024;DHT22;13033;50.936;5.334;2023-04-28T03:54:10;11.70;99.90
25024;DHT22;13033;50.936;5.334;2023-04-28T03:56:36;11.80;99.90
25024;DHT22;13033;50.936;5.334;2023-04-28T03:59:02;12.00;99.90
25024;DHT22;13033;50.936;5.334;2023-04-28T04:01:28;11.90;99.90
25024;DHT22;13033;50.936;5.334;2023-04-28T04:03:53;11.90;99.90
25024;DHT22;13033;50.936;5.334;2023-04-28T04:06:20;12.00;99.90
25024;DHT22;13033;50.936;5.334;2023-04-28T04:08:46;12.20;99.90
25024;DHT22;13033;50.936;5.334;2023-04-28T04:11:11;12.00;99.90
25024;DHT22;13033;50.936;5.334;2023-04-28T04:13:37;11.90;99.90
25024;DHT22;13033;50.936;5.334;2023-04-28T04:16:03;11.80;99.90
25024;DHT22;13033;50.936;5.334;2023-04-28T04:18:28;11.80;99.90
25024;DHT22;13033;50.936;5.334;2023-04-28T04:20:54;11.80;99.90
25024;DHT22;13033;50.936;5.334;2023-04-28T04:23:21;11.90;99.90
25024;DHT22;13033;50.936;5.334;2023-04-28T04:25:47;12.00;99.90
25024;DHT22;13033;50.936;5.334;2023-04-28T04:28:13;12.00;99.90
25024;DHT22;13033;50.936;5.334;2023-04-28T04:30:38;12.10;99.90
25024;DHT22;13033;50.936;5.334;2023-04-28T04:33:04;12.10;99.90
25024;DHT22;13033;50.936;5.334;2023-04-28T04:35:30;12.30;99.90
25024;DHT22;13033;50.936;5.334;2023-04-28T04:37:56;12.30;99.90
25024;DHT22;13033;50.936;5.334;2023-04-28T04:40:22;12.40;99.90
25024;DHT22;13033;50.936;5.334;2023-04-28T04:42:47;12.40;99.90
25024;DHT22;13033;50.936;5.334;2023-04-28T04:45:13;12.30;99.90
25024;DHT22;13033;50.936;5.334;2023-04-28T04:47:39;12.30;99.90
25024;DHT22;13033;50.936;5.334;2023-04-28T04:50:06;12.40;99.90
25024;DHT22;13033;50.936;5.334;2023-04-28T04:52:32;12.40;99.90
25024;DHT22;13033;50.936;5.334;2023-04-28T04:54:58;12.50;99.90
25024;DHT22;13033;50.936;5.334;2023-04-28T04:57:24;12.50;99.90
25024;DHT22;13033;50.936;5.334;2023-04-28T04:59:50;12.50;99.90
25024;DHT22;13033;50.936;5.334;2023-04-28T05:02:16;12.40;99.90
25024;DHT22;13033;50.936;5.334;2023-04-28T05:04:42;12.40;99.90
25024;DHT22;13033;50.936;5.334;2023-04-28T05:07:07;12.40;99.90
25024;DHT22;13033;50.936;5.334;2023-04-28T05:09:33;12.40;99.90
25024;DHT22;13033;50.936;5.334;2023-04-28T05:11:59;12.30;99.90
25024;DHT22;13033;50.936;5.334;2023-04-28T05:14:24;12.10;99.90
25024;DHT22;13033;50.936;5.334;2023-04-28T05:16:50;12.20;99.90
25024;DHT22;13033;50.936;5.334;2023-04-28T05:19:16;12.20;99.90
25024;DHT22;13033;50.936;5.334;2023-04-28T05:21:41;12.40;99.90
25024;DHT22;13033;50.936;5.334;2023-04-28T05:24:07;12.30;99.90
25024;DHT22;13033;50.936;5.334;2023-04-28T05:26:33;12.50;99.90
25024;DHT22;13033;50.936;5.334;2023-04-28T05:28:58;12.60;99.90
25024;DHT22;13033;50.936;5.334;2023-04-28T05:31:24;12.80;99.90
25024;DHT22;13033;50.936;5.334;2023-04-28T05:33:50;12.80;99.90
25024;DHT22;13033;50.936;5.334;2023-04-28T05:36:16;12.90;99.90
25024;DHT22;13033;50.936;5.334;2023-04-28T05:38:42;12.80;99.90
25024;DHT22;13033;50.936;5.334;2023-04-28T05:41:08;12.90;99.90
25024;DHT22;13033;50.936;5.334;2023-04-28T05:43:34;12.90;99.90
25024;DHT22;13033;50.936;5.334;2023-04-28T05:46:00;13.00;99.90
25024;DHT22;13033;50.936;5.334;2023-04-28T05:48:26;13.20;99.90
25024;DHT22;13033;50.936;5.334;2023-04-28T05:50:52;13.30;99.90
25024;DHT22;13033;50.936;5.334;2023-04-28T05:53:17;13.40;99.90
25024;DHT22;13033;50.936;5.334;2023-04-28T05:55:43;13.40;99.90
25024;DHT22;13033;50.936;5.334;2023-04-28T05:58:09;13.40;99.90
25024;DHT22;13033;50.936;5.334;2023-04-28T06:00:35;13.40;99.90
25024;DHT22;13033;50.936;5.334;2023-04-28T06:03:00;12.80;99.90
25024;DHT22;13033;50.936;5.334;2023-04-28T06:05:26;12.70;99.90
25024;DHT22;13033;50.936;5.334;2023-04-28T06:07:52;13.00;99.90
25024;DHT22;13033;50.936;5.334;2023-04-28T06:10:18;13.10;99.90
25024;DHT22;13033;50.936;5.334;2023-04-28T06:12:44;12.90;99.90
25024;DHT22;13033;50.936;5.334;2023-04-28T06:15:10;13.20;99.90
25024;DHT22;13033;50.936;5.334;2023-04-28T06:17:37;13.50;99.90
25024;DHT22;13033;50.936;5.334;2023-04-28T06:20:03;13.50;99.90
25024;DHT22;13033;50.936;5.334;2023-04-28T06:22:29;13.30;99.90
25024;DHT22;13033;50.936;5.334;2023-04-28T06:24:55;13.30;99.90
25024;DHT22;13033;50.936;5.334;2023-04-28T06:27:20;13.60;99.90
25024;DHT22;13033;50.936;5.334;2023-04-28T06:29:46;13.70;99.90
25024;DHT22;13033;50.936;5.334;2023-04-28T06:32:12;13.50;99.90
25024;DHT22;13033;50.936;5.334;2023-04-28T06:34:37;13.10;99.90
25024;DHT22;13033;50.936;5.334;2023-04-28T06:37:03;12.90;99.90
25024;DHT22;13033;50.936;5.334;2023-04-28T06:39:29;13.10;99.90
25024;DHT22;13033;50.936;5.334;2023-04-28T06:41:54;13.10;99.90
25024;DHT22;13033;50.936;5.334;2023-04-28T06:44:20;13.40;99.90
25024;DHT22;13033;50.936;5.334;2023-04-28T06:46:46;13.40;99.90
25024;DHT22;13033;50.936;5.334;2023-04-28T06:49:12;13.50;99.90
25024;DHT22;13033;50.936;5.334;2023-04-28T06:51:37;13.70;99.90
25024;DHT22;13033;50.936;5.334;2023-04-28T06:54:03;13.80;99.90
25024;DHT22;13033;50.936;5.334;2023-04-28T06:56:29;14.00;99.90
25024;DHT22;13033;50.936;5.334;2023-04-28T06:58:55;14.20;99.90
25024;DHT22;13033;50.936;5.334;2023-04-28T07:01:21;14.10;99.90
25024;DHT22;13033;50.936;5.334;2023-04-28T07:03:47;13.90;99.90
25024;DHT22;13033;50.936;5.334;2023-04-28T07:06:13;13.90;99.90
25024;DHT22;13033;50.936;5.334;2023-04-28T07:08:40;13.90;99.90
25024;DHT22;13033;50.936;5.334;2023-04-28T07:11:05;14.00;99.90
25024;DHT22;13033;50.936;5.334;2023-04-28T07:13:32;14.00;99.90
25024;DHT22;13033;50.936;5.334;2023-04-28T07:15:57;14.10;99.90
25024;DHT22;13033;50.936;5.334;2023-04-28T07:18:23;14.30;99.90
25024;DHT22;13033;50.936;5.334;2023-04-28T07:20:49;14.20;99.90
25024;DHT22;13033;50.936;5.334;2023-04-28T07:23:15;14.10;99.90
25024;DHT22;13033;50.936;5.334;2023-04-28T07:25:41;14.00;99.90
25024;DHT22;13033;50.936;5.334;2023-04-28T07:28:07;14.00;99.90
25024;DHT22;13033;50.936;5.334;2023-04-28T07:30:34;14.00;99.90
25024;DHT22;13033;50.936;5.334;2023-04-28T07:33:00;14.00;99.90
25024;DHT22;13033;50.936;5.334;2023-04-28T07:35:26;14.00;99.90
25024;DHT22;13033;50.936;5.334;2023-04-28T07:37:52;14.10;99.90
25024;DHT22;13033;50.936;5.334;2023-04-28T07:40:18;14.00;99.90
25024;DHT22;13033;50.936;5.334;2023-04-28T07:42:44;14.20;99.90
25024;DHT22;13033;50.936;5.334;2023-04-28T07:45:11;14.30;99.90
25024;DHT22;13033;50.936;5.334;2023-04-28T07:47:38;14.10;99.90
25024;DHT22;13033;50.936;5.334;2023-04-28T07:50:05;14.30;99.90
25024;DHT22;13033;50.936;5.334;2023-04-28T07:52:32;14.50;99.90
25024;DHT22;13033;50.936;5.334;2023-04-28T07:54:58;14.60;99.90
25024;DHT22;13033;50.936;5.334;2023-04-28T07:57:29;14.60;99.90
25024;DHT22;13033;50.936;5.334;2023-04-28T07:59:55;14.80;99.90
25024;DHT22;13033;50.936;5.334;2023-04-28T08:02:20;14.90;99.90
25024;DHT22;13033;50.936;5.334;2023-04-28T08:04:46;15.20;99.90
25024;DHT22;13033;50.936;5.334;2023-04-28T08:07:12;15.50;99.90
25024;DHT22;13033;50.936;5.334;2023-04-28T08:09:38;15.60;99.90
25024;DHT22;13033;50.936;5.334;2023-04-28T08:12:07;15.80;99.90
25024;DHT22;13033;50.936;5.334;2023-04-28T08:14:32;15.90;99.90
25024;DHT22;13033;50.936;5.334;2023-04-28T08:16:58;15.80;99.90
25024;DHT22;13033;50.936;5.334;2023-04-28T08:19:24;15.60;99.90
25024;DHT22;13033;50.936;5.334;2023-04-28T08:21:49;15.70;99.90
25024;DHT22;13033;50.936;5.334;2023-04-28T08:24:15;15.70;99.90
25024;DHT22;13033;50.936;5.334;2023-04-28T08:26:41;15.60;99.90
25024;DHT22;13033;50.936;5.334;2023-04-28T08:29:06;15.60;99.90
25024;DHT22;13033;50.936;5.334;2023-04-28T08:31:32;15.60;99.90
25024;DHT22;13033;50.936;5.334;2023-04-28T08:33:57;15.40;99.90
25024;DHT22;13033;50.936;5.334;2023-04-28T08:36:24;15.60;99.90
25024;DHT22;13033;50.936;5.334;2023-04-28T08:38:50;15.70;99.90
25024;DHT22;13033;50.936;5.334;2023-04-28T08:41:17;15.80;99.90
25024;DHT22;13033;50.936;5.334;2023-04-28T08:43:44;15.70;99.90
25024;DHT22;13033;50.936;5.334;2023-04-28T08:46:10;15.70;99.90
25024;DHT22;13033;50.936;5.334;2023-04-28T08:48:41;15.80;99.90
25024;DHT22;13033;50.936;5.334;2023-04-28T08:51:13;15.80;99.90
25024;DHT22;13033;50.936;5.334;2023-04-28T08:53:43;16.00;99.90
25024;DHT22;13033;50.936;5.334;2023-04-28T08:56:10;16.00;99.90
25024;DHT22;13033;50.936;5.334;2023-04-28T08:58:38;16.10;99.90
25024;DHT22;13033;50.936;5.334;2023-04-28T09:01:04;16.20;99.90
25024;DHT22;13033;50.936;5.334;2023-04-28T09:03:30;16.40;99.90
25024;DHT22;13033;50.936;5.334;2023-04-28T09:05:57;16.50;99.90
25024;DHT22;13033;50.936;5.334;2023-04-28T09:08:23;16.60;99.90
25024;DHT22;13033;50.936;5.334;2023-04-28T09:11:08;17.10;99.90
25024;DHT22;13033;50.936;5.334;2023-04-28T09:13:34;17.40;99.90
25024;DHT22;13033;50.936;5.334;2023-04-28T09:16:00;17.50;99.90
25024;DHT22;13033;50.936;5.334;2023-04-28T09:18:27;17.50;99.90
25024;DHT22;13033;50.936;5.334;2023-04-28T09:21:05;17.50;99.90
25024;DHT22;13033;50.936;5.334;2023-04-28T09:23:31;17.30;99.90
25024;DHT22;13033;50.936;5.334;2023-04-28T09:26:07;17.30;99.90
25024;DHT22;13033;50.936;5.334;2023-04-28T09:28:34;17.20;99.90
25024;DHT22;13033;50.936;5.334;2023-04-28T09:31:00;17.40;99.90
25024;DHT22;13033;50.936;5.334;2023-04-28T09:33:26;17.50;99.90
25024;DHT22;13033;50.936;5.334;2023-04-28T09:35:52;17.50;99.90
25024;DHT22;13033;50.936;5.334;2023-04-28T09:38:20;17.60;99.90
25024;DHT22;13033;50.936;5.334;2023-04-28T09:40:59;17.70;99.90
25024;DHT22;13033;50.936;5.334;2023-04-28T09:43:33;17.80;99.90
25024;DHT22;13033;50.936;5.334;2023-04-28T09:46:00;17.70;99.90
25024;DHT22;13033;50.936;5.334;2023-04-28T09:48:34;17.70;99.90
25024;DHT22;13033;50.936;5.334;2023-04-28T09:51:03;17.80;99.90
25024;DHT22;13033;50.936;5.334;2023-04-28T09:53:30;17.80;99.90
25024;DHT22;13033;50.936;5.334;2023-04-28T09:55:58;18.00;99.90
25024;DHT22;13033;50.936;5.334;2023-04-28T09:58:25;18.20;99.90
25024;DHT22;13033;50.936;5.334;2023-04-28T10:00:59;18.20;99.90
25024;DHT22;13033;50.936;5.334;2023-04-28T10:03:27;18.20;99.90
25024;DHT22;13033;50.936;5.334;2023-04-28T10:05:55;18.40;99.90
25024;DHT22;13033;50.936;5.334;2023-04-28T10:08:24;18.40;99.90
25024;DHT22;13033;50.936;5.334;2023-04-28T10:10:51;18.40;99.90
25024;DHT22;13033;50.936;5.334;2023-04-28T10:13:21;18.40;99.90
25024;DHT22;13033;50.936;5.334;2023-04-28T10:15:47;18.30;99.90
25024;DHT22;13033;50.936;5.334;2023-04-28T10:18:14;18.20;99.90
25024;DHT22;13033;50.936;5.334;2023-04-28T10:20:43;18.00;99.90
25024;DHT22;13033;50.936;5.334;2023-04-28T10:25:56;18.10;99.90
25024;DHT22;13033;50.936;5.334;2023-04-28T10:28:24;18.10;99.90
25024;DHT22;13033;50.936;5.334;2023-04-28T10:31:19;18.00;99.90
25024;DHT22;13033;50.936;5.334;2023-04-28T10:33:48;17.90;99.90
25024;DHT22;13033;50.936;5.334;2023-04-28T10:36:46;18.10;99.90
25024;DHT22;13033;50.936;5.334;2023-04-28T10:39:11;18.10;99.90
25024;DHT22;13033;50.936;5.334;2023-04-28T10:41:37;18.10;99.90
25024;DHT22;13033;50.936;5.334;2023-04-28T10:47:05;18.20;99.90
25024;DHT22;13033;50.936;5.334;2023-04-28T11:00:45;18.80;99.90
25024;DHT22;13033;50.936;5.334;2023-04-28T11:06:33;19.10;99.90
25024;DHT22;13033;50.936;5.334;2023-04-28T11:11:32;19.10;99.90
25024;DHT22;13033;50.936;5.334;2023-04-28T11:19:38;20.10;99.90
25024;DHT22;13033;50.936;5.334;2023-04-28T11:22:04;20.40;99.90
25024;DHT22;13033;50.936;5.334;2023-04-28T11:24:36;20.30;99.90
25024;DHT22;13033;50.936;5.334;2023-04-28T11:27:01;20.00;99.90
25024;DHT22;13033;50.936;5.334;2023-04-28T11:29:35;19.70;99.90
25024;DHT22;13033;50.936;5.334;2023-04-28T11:32:03;19.70;99.90
25024;DHT22;13033;50.936;5.334;2023-04-28T11:34:29;19.60;99.90
25024;DHT22;13033;50.936;5.334;2023-04-28T11:36:55;19.50;99.90
25024;DHT22;13033;50.936;5.334;2023-04-28T11:39:32;19.50;99.90
25024;DHT22;13033;50.936;5.334;2023-04-28T11:42:04;19.60;99.90
25024;DHT22;13033;50.936;5.334;2023-04-28T11:44:33;19.60;99.90
25024;DHT22;13033;50.936;5.334;2023-04-28T11:47:01;19.60;99.90
25024;DHT22;13033;50.936;5.334;2023-04-28T11:49:29;19.70;99.90
25024;DHT22;13033;50.936;5.334;2023-04-28T11:52:04;19.70;99.90
25024;DHT22;13033;50.936;5.334;2023-04-28T11:54:30;19.80;99.90
25024;DHT22;13033;50.936;5.334;2023-04-28T11:56:57;20.00;99.90
25024;DHT22;13033;50.936;5.334;2023-04-28T11:59:33;20.20;99.90
25024;DHT22;13033;50.936;5.334;2023-04-28T12:02:01;20.50;99.90
25024;DHT22;13033;50.936;5.334;2023-04-28T12:09:36;20.80;99.90
25024;DHT22;13033;50.936;5.334;2023-04-28T12:12:03;20.50;99.90
25024;DHT22;13033;50.936;5.334;2023-04-28T12:14:30;20.10;99.90
25024;DHT22;13033;50.936;5.334;2023-04-28T12:16:59;19.80;99.90
25024;DHT22;13033;50.936;5.334;2023-04-28T12:19:25;19.60;99.90
25024;DHT22;13033;50.936;5.334;2023-04-28T12:22:02;19.70;99.90
25024;DHT22;13033;50.936;5.334;2023-04-28T12:24:29;19.80;99.90
25024;DHT22;13033;50.936;5.334;2023-04-28T12:27:16;20.00;99.90
25024;DHT22;13033;50.936;5.334;2023-04-28T12:29:43;20.30;99.90
25024;DHT22;13033;50.936;5.334;2023-04-28T12:32:10;20.30;99.90
25024;DHT22;13033;50.936;5.334;2023-04-28T12:34:38;20.40;99.90
25024;DHT22;13033;50.936;5.334;2023-04-28T12:37:06;20.70;99.90
25024;DHT22;13033;50.936;5.334;2023-04-28T12:39:33;20.60;99.90
25024;DHT22;13033;50.936;5.334;2023-04-28T12:42:01;20.50;99.90
25024;DHT22;13033;50.936;5.334;2023-04-28T12:44:36;20.50;99.90
25024;DHT22;13033;50.936;5.334;2023-04-28T12:47:06;20.60;99.90
25024;DHT22;13033;50.936;5.334;2023-04-28T12:49:36;20.50;99.90
25024;DHT22;13033;50.936;5.334;2023-04-28T12:52:03;20.10;99.90
25024;DHT22;13033;50.936;5.334;2023-04-28T12:54:29;19.80;99.90
25024;DHT22;13033;50.936;5.334;2023-04-28T12:56:55;19.80;99.90
25024;DHT22;13033;50.936;5.334;2023-04-28T12:59:21;19.70;99.90
25024;DHT22;13033;50.936;5.334;2023-04-28T13:01:48;19.60;99.90
25024;DHT22;13033;50.936;5.334;2023-04-28T13:04:14;19.50;99.90
25024;DHT22;13033;50.936;5.334;2023-04-28T13:06:39;19.50;99.90
25024;DHT22;13033;50.936;5.334;2023-04-28T13:09:14;19.70;99.90
25024;DHT22;13033;50.936;5.334;2023-04-28T13:11:40;19.50;99.90
25024;DHT22;13033;50.936;5.334;2023-04-28T13:14:07;19.40;99.90
25024;DHT22;13033;50.936;5.334;2023-04-28T13:16:33;19.40;99.90
25024;DHT22;13033;50.936;5.334;2023-04-28T13:19:00;19.30;99.90
25024;DHT22;13033;50.936;5.334;2023-04-28T13:21:26;19.30;99.90
25024;DHT22;13033;50.936;5.334;2023-04-28T13:23:56;19.10;99.90
25024;DHT22;13033;50.936;5.334;2023-04-28T13:26:22;19.00;99.90
25024;DHT22;13033;50.936;5.334;2023-04-28T13:28:51;18.90;99.90
25024;DHT22;13033;50.936;5.334;2023-04-28T13:31:17;18.70;99.90
25024;DHT22;13033;50.936;5.334;2023-04-28T13:33:43;18.60;99.90
25024;DHT22;13033;50.936;5.334;2023-04-28T13:36:09;18.70;99.90
25024;DHT22;13033;50.936;5.334;2023-04-28T13:38:35;18.80;99.90
25024;DHT22;13033;50.936;5.334;2023-04-28T13:41:01;18.80;99.90
25024;DHT22;13033;50.936;5.334;2023-04-28T13:43:27;18.80;99.90
25024;DHT22;13033;50.936;5.334;2023-04-28T13:45:53;18.80;99.90
25024;DHT22;13033;50.936;5.334;2023-04-28T13:48:18;18.70;99.90
25024;DHT22;13033;50.936;5.334;2023-04-28T13:50:44;18.60;99.90
25024;DHT22;13033;50.936;5.334;2023-04-28T13:53:10;18.70;99.90
25024;DHT22;13033;50.936;5.334;2023-04-28T13:55:36;18.60;99.90
25024;DHT22;13033;50.936;5.334;2023-04-28T13:58:01;18.60;99.90
25024;DHT22;13033;50.936;5.334;2023-04-28T14:00:33;18.60;99.90
25024;DHT22;13033;50.936;5.334;2023-04-28T14:02:59;18.40;99.90
25024;DHT22;13033;50.936;5.334;2023-04-28T14:05:26;18.20;99.90
25024;DHT22;13033;50.936;5.334;2023-04-28T14:07:54;18.10;99.90
25024;DHT22;13033;50.936;5.334;2023-04-28T14:10:21;18.10;99.90
25024;DHT22;13033;50.936;5.334;2023-04-28T14:12:47;17.90;99.90
25024;DHT22;13033;50.936;5.334;2023-04-28T14:15:14;17.70;99.90
25024;DHT22;13033;50.936;5.334;2023-04-28T14:17:41;17.40;99.90
25024;DHT22;13033;50.936;5.334;2023-04-28T14:20:07;17.20;99.90
25024;DHT22;13033;50.936;5.334;2023-04-28T14:22:36;17.20;99.90
25024;DHT22;13033;50.936;5.334;2023-04-28T14:25:02;17.40;99.90
25024;DHT22;13033;50.936;5.334;2023-04-28T14:27:28;17.40;99.90
25024;DHT22;13033;50.936;5.334;2023-04-28T14:29:54;17.30;99.90
25024;DHT22;13033;50.936;5.334;2023-04-28T14:32:19;17.40;99.90
25024;DHT22;13033;50.936;5.334;2023-04-28T14:34:49;17.40;99.90
25024;DHT22;13033;50.936;5.334;2023-04-28T14:37:16;17.60;99.90
25024;DHT22;13033;50.936;5.334;2023-04-28T14:39:42;17.60;99.90
25024;DHT22;13033;50.936;5.334;2023-04-28T14:42:08;17.60;99.90
25024;DHT22;13033;50.936;5.334;2023-04-28T14:44:34;17.50;99.90
25024;DHT22;13033;50.936;5.334;2023-04-28T14:47:01;17.40;99.90
25024;DHT22;13033;50.936;5.334;2023-04-28T14:49:26;17.40;99.90
25024;DHT22;13033;50.936;5.334;2023-04-28T14:51:52;17.40;99.90
25024;DHT22;13033;50.936;5.334;2023-04-28T14:54:18;17.30;99.90
25024;DHT22;13033;50.936;5.334;2023-04-28T14:56:44;17.30;99.90
25024;DHT22;13033;50.936;5.334;2023-04-28T14:59:10;17.40;99.90
25024;DHT22;13033;50.936;5.334;2023-04-28T15:01:36;17.40;99.90
25024;DHT22;13033;50.936;5.334;2023-04-28T15:04:02;17.30;99.90
25024;DHT22;13033;50.936;5.334;2023-04-28T15:06:28;17.20;99.90
25024;DHT22;13033;50.936;5.334;2023-04-28T15:08:54;17.20;99.90
25024;DHT22;13033;50.936;5.334;2023-04-28T15:11:19;17.30;99.90
25024;DHT22;13033;50.936;5.334;2023-04-28T15:13:45;17.40;99.90
25024;DHT22;13033;50.936;5.334;2023-04-28T15:16:11;17.40;99.90
25024;DHT22;13033;50.936;5.334;2023-04-28T15:18:36;17.20;99.90
25024;DHT22;13033;50.936;5.334;2023-04-28T15:21:02;17.10;99.90
25024;DHT22;13033;50.936;5.334;2023-04-28T15:23:28;17.10;99.90
25024;DHT22;13033;50.936;5.334;2023-04-28T15:25:54;17.20;99.90
25024;DHT22;13033;50.936;5.334;2023-04-28T15:28:19;17.10;99.90
25024;DHT22;13033;50.936;5.334;2023-04-28T15:30:46;17.00;99.90
25024;DHT22;13033;50.936;5.334;2023-04-28T15:33:12;17.00;99.90
25024;DHT22;13033;50.936;5.334;2023-04-28T15:35:44;17.00;99.90
25024;DHT22;13033;50.936;5.334;2023-04-28T15:38:11;17.00;99.90
25024;DHT22;13033;50.936;5.334;2023-04-28T15:40:40;17.30;99.90
25024;DHT22;13033;50.936;5.334;2023-04-28T15:43:06;17.30;99.90
25024;DHT22;13033;50.936;5.334;2023-04-28T15:45:32;17.30;99.90
25024;DHT22;13033;50.936;5.334;2023-04-28T15:47:59;17.20;99.90
25024;DHT22;13033;50.936;5.334;2023-04-28T15:50:25;17.30;99.90
25024;DHT22;13033;50.936;5.334;2023-04-28T15:52:51;17.30;99.90
25024;DHT22;13033;50.936;5.334;2023-04-28T15:55:19;17.30;99.90
25024;DHT22;13033;50.936;5.334;2023-04-28T15:57:46;17.20;99.90
25024;DHT22;13033;50.936;5.334;2023-04-28T16:00:13;17.10;99.90